sensor_id;sensor_type;location;lat;lon;timestamp;P1;durP1;ratioP1;P2;durP2;ratioP2
8183;SDS011;4133;48.752;9.088;2022-07-21T00:01:09;17.45;;;15.75;;
8183;SDS011;4133;48.752;9.088;2022-07-21T00:03:35;18.67;;;16.55;;
8183;SDS011;4133;48.752;9.088;2022-07-21T00:06:01;19.50;;;16.92;;
8183;SDS011;4133;48.752;9.088;2022-07-21T00:08:27;19.02;;;16.52;;
8183;SDS011;4133;48.752;9.088;2022-07-21T00:10:53;17.83;;;15.93;;
8183;SDS011;4133;48.752;9.088;2022-07-21T00:13:19;17.30;;;15.60;;
8183;SDS011;4133;48.752;9.088;2022-07-21T00:15:45;16.95;;;15.27;;
8183;SDS011;4133;48.752;9.088;2022-07-21T00:18:11;18.17;;;15.68;;
8183;SDS011;4133;48.752;9.088;2022-07-21T00:20:38;17.38;;;15.57;;
8183;SDS011;4133;48.752;9.088;2022-07-21T00:23:04;15.82;;;13.93;;
8183;SDS011;4133;48.752;9.088;2022-07-21T00:25:30;15.13;;;13.63;;
8183;SDS011;4133;48.752;9.088;2022-07-21T00:27:56;18.05;;;15.50;;
8183;SDS011;4133;48.752;9.088;2022-07-21T00:30:22;18.00;;;15.68;;
8183;SDS011;4133;48.752;9.088;2022-07-21T00:32:48;19.42;;;16.35;;
8183;SDS011;4133;48.752;9.088;2022-07-21T00:35:14;17.80;;;16.02;;
8183;SDS011;4133;48.752;9.088;2022-07-21T00:37:40;21.52;;;15.13;;
8183;SDS011;4133;48.752;9.088;2022-07-21T00:40:07;20.13;;;15.70;;
8183;SDS011;4133;48.752;9.088;2022-07-21T00:42:33;19.05;;;16.90;;
8183;SDS011;4133;48.752;9.088;2022-07-21T00:44:59;20.52;;;15.85;;
8183;SDS011;4133;48.752;9.088;2022-07-21T00:47:27;17.15;;;15.50;;
8183;SDS011;4133;48.752;9.088;2022-07-21T00:49:53;20.05;;;15.32;;
8183;SDS011;4133;48.752;9.088;2022-07-21T00:52:19;18.75;;;16.23;;
8183;SDS011;4133;48.752;9.088;2022-07-21T00:54:46;19.40;;;16.90;;
8183;SDS011;4133;48.752;9.088;2022-07-21T00:57:12;18.85;;;16.88;;
8183;SDS011;4133;48.752;9.088;2022-07-21T00:59:39;22.63;;;17.98;;
8183;SDS011;4133;48.752;9.088;2022-07-21T01:02:05;18.80;;;16.77;;
8183;SDS011;4133;48.752;9.088;2022-07-21T01:04:32;18.20;;;16.08;;
8183;SDS011;4133;48.752;9.088;2022-07-21T01:06:59;19.05;;;16.65;;
8183;SDS011;4133;48.752;9.088;2022-07-21T01:09:26;18.77;;;16.77;;
8183;SDS011;4133;48.752;9.088;2022-07-21T01:11:52;19.23;;;16.58;;
8183;SDS011;4133;48.752;9.088;2022-07-21T01:14:18;20.88;;;16.58;;
8183;SDS011;4133;48.752;9.088;2022-07-21T01:16:44;20.05;;;16.58;;
8183;SDS011;4133;48.752;9.088;2022-07-21T01:19:10;19.23;;;17.02;;
8183;SDS011;4133;48.752;9.088;2022-07-21T01:21:38;19.27;;;15.98;;
8183;SDS011;4133;48.752;9.088;2022-07-21T01:24:05;20.88;;;15.55;;
8183;SDS011;4133;48.752;9.088;2022-07-21T01:26:31;18.20;;;16.25;;
8183;SDS011;4133;48.752;9.088;2022-07-21T01:29:05;18.67;;;16.23;;
8183;SDS011;4133;48.752;9.088;2022-07-21T01:31:31;17.73;;;15.85;;
8183;SDS011;4133;48.752;9.088;2022-07-21T01:33:57;18.02;;;15.43;;
8183;SDS011;4133;48.752;9.088;2022-07-21T01:38:52;24.00;;;15.27;;
8183;SDS011;4133;48.752;9.088;2022-07-21T01:41:36;19.10;;;15.50;;
8183;SDS011;4133;48.752;9.088;2022-07-21T01:44:06;18.73;;;15.00;;
8183;SDS011;4133;48.752;9.088;2022-07-21T01:46:33;17.90;;;13.75;;
8183;SDS011;4133;48.752;9.088;2022-07-21T01:48:59;21.60;;;14.82;;
8183;SDS011;4133;48.752;9.088;2022-07-21T01:51:25;17.88;;;14.75;;
8183;SDS011;4133;48.752;9.088;2022-07-21T01:53:52;17.92;;;14.30;;
8183;SDS011;4133;48.752;9.088;2022-07-21T01:56:18;17.33;;;13.63;;
8183;SDS011;4133;48.752;9.088;2022-07-21T01:58:45;14.43;;;12.95;;
8183;SDS011;4133;48.752;9.088;2022-07-21T02:01:11;17.95;;;13.70;;
8183;SDS011;4133;48.752;9.088;2022-07-21T02:03:37;16.15;;;14.45;;
8183;SDS011;4133;48.752;9.088;2022-07-21T02:06:04;15.63;;;13.02;;
8183;SDS011;4133;48.752;9.088;2022-07-21T02:08:30;23.70;;;14.43;;
8183;SDS011;4133;48.752;9.088;2022-07-21T02:10:57;18.17;;;14.80;;
8183;SDS011;4133;48.752;9.088;2022-07-21T02:13:23;16.42;;;14.65;;
8183;SDS011;4133;48.752;9.088;2022-07-21T02:15:49;16.65;;;14.30;;
8183;SDS011;4133;48.752;9.088;2022-07-21T02:18:15;21.27;;;15.27;;
8183;SDS011;4133;48.752;9.088;2022-07-21T02:20:41;16.23;;;14.50;;
8183;SDS011;4133;48.752;9.088;2022-07-21T02:23:07;19.17;;;13.70;;
8183;SDS011;4133;48.752;9.088;2022-07-21T02:25:33;16.40;;;13.85;;
8183;SDS011;4133;48.752;9.088;2022-07-21T02:27:59;14.48;;;12.55;;
8183;SDS011;4133;48.752;9.088;2022-07-21T02:30:25;14.85;;;12.90;;
8183;SDS011;4133;48.752;9.088;2022-07-21T02:32:51;18.60;;;13.57;;
8183;SDS011;4133;48.752;9.088;2022-07-21T02:35:18;20.60;;;13.70;;
8183;SDS011;4133;48.752;9.088;2022-07-21T02:37:44;17.15;;;14.10;;
8183;SDS011;4133;48.752;9.088;2022-07-21T02:40:10;14.30;;;12.93;;
8183;SDS011;4133;48.752;9.088;2022-07-21T02:42:36;16.70;;;13.25;;
8183;SDS011;4133;48.752;9.088;2022-07-21T02:45:03;16.00;;;12.57;;
8183;SDS011;4133;48.752;9.088;2022-07-21T02:47:29;16.90;;;12.60;;
8183;SDS011;4133;48.752;9.088;2022-07-21T02:49:55;14.18;;;12.77;;
8183;SDS011;4133;48.752;9.088;2022-07-21T02:52:21;14.93;;;12.70;;
8183;SDS011;4133;48.752;9.088;2022-07-21T02:54:47;15.75;;;12.18;;
8183;SDS011;4133;48.752;9.088;2022-07-21T02:57:13;17.08;;;12.70;;
8183;SDS011;4133;48.752;9.088;2022-07-21T02:59:39;15.70;;;12.95;;
8183;SDS011;4133;48.752;9.088;2022-07-21T03:02:05;18.20;;;12.80;;
8183;SDS011;4133;48.752;9.088;2022-07-21T03:04:31;17.50;;;12.10;;
8183;SDS011;4133;48.752;9.088;2022-07-21T03:06:57;16.58;;;13.18;;
8183;SDS011;4133;48.752;9.088;2022-07-21T03:09:23;16.80;;;13.15;;
8183;SDS011;4133;48.752;9.088;2022-07-21T03:11:49;16.55;;;13.40;;
8183;SDS011;4133;48.752;9.088;2022-07-21T03:14:15;19.67;;;14.13;;
8183;SDS011;4133;48.752;9.088;2022-07-21T03:16:41;17.70;;;13.48;;
8183;SDS011;4133;48.752;9.088;2022-07-21T03:19:07;15.25;;;13.40;;
8183;SDS011;4133;48.752;9.088;2022-07-21T03:21:33;18.52;;;13.77;;
8183;SDS011;4133;48.752;9.088;2022-07-21T03:23:59;18.77;;;13.23;;
8183;SDS011;4133;48.752;9.088;2022-07-21T03:26:25;13.55;;;12.15;;
8183;SDS011;4133;48.752;9.088;2022-07-21T03:28:51;13.73;;;11.98;;
8183;SDS011;4133;48.752;9.088;2022-07-21T03:31:17;13.93;;;11.95;;
8183;SDS011;4133;48.752;9.088;2022-07-21T03:33:43;16.55;;;12.77;;
8183;SDS011;4133;48.752;9.088;2022-07-21T03:36:09;14.73;;;12.43;;
8183;SDS011;4133;48.752;9.088;2022-07-21T03:38:35;14.68;;;12.40;;
8183;SDS011;4133;48.752;9.088;2022-07-21T03:41:01;15.23;;;12.52;;
8183;SDS011;4133;48.752;9.088;2022-07-21T03:43:27;14.18;;;12.70;;
8183;SDS011;4133;48.752;9.088;2022-07-21T03:45:53;14.38;;;11.85;;
8183;SDS011;4133;48.752;9.088;2022-07-21T03:48:19;13.43;;;12.02;;
8183;SDS011;4133;48.752;9.088;2022-07-21T03:50:45;14.68;;;11.85;;
8183;SDS011;4133;48.752;9.088;2022-07-21T03:53:11;15.13;;;11.55;;
8183;SDS011;4133;48.752;9.088;2022-07-21T03:55:37;15.15;;;12.35;;
8183;SDS011;4133;48.752;9.088;2022-07-21T03:58:04;15.02;;;12.85;;
8183;SDS011;4133;48.752;9.088;2022-07-21T04:00:39;15.13;;;12.65;;
8183;SDS011;4133;48.752;9.088;2022-07-21T04:03:05;19.85;;;15.73;;
8183;SDS011;4133;48.752;9.088;2022-07-21T04:05:31;16.50;;;13.68;;
8183;SDS011;4133;48.752;9.088;2022-07-21T04:07:57;14.93;;;12.27;;
8183;SDS011;4133;48.752;9.088;2022-07-21T04:10:25;16.55;;;12.48;;
8183;SDS011;4133;48.752;9.088;2022-07-21T04:12:51;14.63;;;11.90;;
8183;SDS011;4133;48.752;9.088;2022-07-21T04:15:18;14.10;;;12.00;;
8183;SDS011;4133;48.752;9.088;2022-07-21T04:17:44;15.63;;;12.10;;
8183;SDS011;4133;48.752;9.088;2022-07-21T04:20:10;20.05;;;13.10;;
8183;SDS011;4133;48.752;9.088;2022-07-21T04:22:38;16.02;;;12.60;;
8183;SDS011;4133;48.752;9.088;2022-07-21T04:25:05;15.27;;;12.82;;
8183;SDS011;4133;48.752;9.088;2022-07-21T04:27:31;17.85;;;13.85;;
8183;SDS011;4133;48.752;9.088;2022-07-21T04:29:57;16.02;;;13.02;;
8183;SDS011;4133;48.752;9.088;2022-07-21T04:32:23;19.10;;;13.45;;
8183;SDS011;4133;48.752;9.088;2022-07-21T04:34:49;16.92;;;13.00;;
8183;SDS011;4133;48.752;9.088;2022-07-21T04:37:15;14.93;;;12.73;;
8183;SDS011;4133;48.752;9.088;2022-07-21T04:39:41;17.23;;;13.27;;
8183;SDS011;4133;48.752;9.088;2022-07-21T04:42:07;17.75;;;13.48;;
8183;SDS011;4133;48.752;9.088;2022-07-21T04:44:33;19.10;;;13.55;;
8183;SDS011;4133;48.752;9.088;2022-07-21T04:46:59;17.77;;;15.77;;
8183;SDS011;4133;48.752;9.088;2022-07-21T04:49:25;19.33;;;14.85;;
8183;SDS011;4133;48.752;9.088;2022-07-21T04:51:51;20.20;;;14.52;;
8183;SDS011;4133;48.752;9.088;2022-07-21T04:54:17;20.60;;;14.48;;
8183;SDS011;4133;48.752;9.088;2022-07-21T04:56:43;18.13;;;14.63;;
8183;SDS011;4133;48.752;9.088;2022-07-21T04:59:10;18.30;;;14.60;;
8183;SDS011;4133;48.752;9.088;2022-07-21T05:01:36;21.40;;;14.73;;
8183;SDS011;4133;48.752;9.088;2022-07-21T05:04:03;15.75;;;13.48;;
8183;SDS011;4133;48.752;9.088;2022-07-21T05:06:29;16.55;;;13.98;;
8183;SDS011;4133;48.752;9.088;2022-07-21T05:08:55;22.70;;;15.23;;
8183;SDS011;4133;48.752;9.088;2022-07-21T05:11:21;18.52;;;14.32;;
8183;SDS011;4133;48.752;9.088;2022-07-21T05:13:47;20.67;;;15.18;;
8183;SDS011;4133;48.752;9.088;2022-07-21T05:16:13;20.30;;;14.98;;
8183;SDS011;4133;48.752;9.088;2022-07-21T05:18:39;19.27;;;14.82;;
8183;SDS011;4133;48.752;9.088;2022-07-21T05:21:05;17.33;;;15.02;;
8183;SDS011;4133;48.752;9.088;2022-07-21T05:23:31;18.60;;;14.68;;
8183;SDS011;4133;48.752;9.088;2022-07-21T05:25:57;20.20;;;14.27;;
8183;SDS011;4133;48.752;9.088;2022-07-21T05:28:23;16.63;;;13.55;;
8183;SDS011;4133;48.752;9.088;2022-07-21T05:30:49;20.25;;;14.30;;
8183;SDS011;4133;48.752;9.088;2022-07-21T05:33:15;21.45;;;13.57;;
8183;SDS011;4133;48.752;9.088;2022-07-21T05:35:41;21.15;;;14.25;;
8183;SDS011;4133;48.752;9.088;2022-07-21T05:38:07;18.05;;;14.25;;
8183;SDS011;4133;48.752;9.088;2022-07-21T05:40:33;18.60;;;14.48;;
8183;SDS011;4133;48.752;9.088;2022-07-21T05:42:59;18.50;;;15.15;;
8183;SDS011;4133;48.752;9.088;2022-07-21T05:45:25;15.13;;;13.45;;
8183;SDS011;4133;48.752;9.088;2022-07-21T05:47:51;14.43;;;12.80;;
8183;SDS011;4133;48.752;9.088;2022-07-21T05:50:17;15.98;;;13.32;;
8183;SDS011;4133;48.752;9.088;2022-07-21T05:52:43;15.82;;;14.10;;
8183;SDS011;4133;48.752;9.088;2022-07-21T05:55:09;17.83;;;14.48;;
8183;SDS011;4133;48.752;9.088;2022-07-21T05:57:36;15.48;;;13.65;;
8183;SDS011;4133;48.752;9.088;2022-07-21T06:00:03;16.60;;;14.60;;
8183;SDS011;4133;48.752;9.088;2022-07-21T06:02:29;16.42;;;14.35;;
8183;SDS011;4133;48.752;9.088;2022-07-21T06:04:56;17.90;;;13.68;;
8183;SDS011;4133;48.752;9.088;2022-07-21T06:07:22;15.48;;;13.75;;
8183;SDS011;4133;48.752;9.088;2022-07-21T06:09:48;15.10;;;13.52;;
8183;SDS011;4133;48.752;9.088;2022-07-21T06:12:14;20.75;;;14.48;;
8183;SDS011;4133;48.752;9.088;2022-07-21T06:14:40;17.52;;;13.13;;
8183;SDS011;4133;48.752;9.088;2022-07-21T06:17:06;16.35;;;12.30;;
8183;SDS011;4133;48.752;9.088;2022-07-21T06:19:33;13.13;;;11.77;;
8183;SDS011;4133;48.752;9.088;2022-07-21T06:21:59;12.52;;;11.32;;
8183;SDS011;4133;48.752;9.088;2022-07-21T06:24:25;10.55;;;9.40;;
8183;SDS011;4133;48.752;9.088;2022-07-21T06:26:52;12.07;;;9.85;;
8183;SDS011;4133;48.752;9.088;2022-07-21T06:29:21;10.25;;;9.25;;
8183;SDS011;4133;48.752;9.088;2022-07-21T06:31:47;11.52;;;9.77;;
8183;SDS011;4133;48.752;9.088;2022-07-21T06:34:13;9.27;;;8.07;;
8183;SDS011;4133;48.752;9.088;2022-07-21T06:36:38;10.88;;;9.50;;
8183;SDS011;4133;48.752;9.088;2022-07-21T06:39:04;9.40;;;8.50;;
8183;SDS011;4133;48.752;9.088;2022-07-21T06:41:31;9.05;;;8.15;;
8183;SDS011;4133;48.752;9.088;2022-07-21T06:43:57;11.95;;;9.30;;
8183;SDS011;4133;48.752;9.088;2022-07-21T06:46:23;9.70;;;8.77;;
8183;SDS011;4133;48.752;9.088;2022-07-21T06:48:50;11.55;;;8.60;;
8183;SDS011;4133;48.752;9.088;2022-07-21T06:51:16;9.93;;;7.80;;
8183;SDS011;4133;48.752;9.088;2022-07-21T06:53:42;9.65;;;8.63;;
8183;SDS011;4133;48.752;9.088;2022-07-21T06:56:08;12.65;;;8.52;;
8183;SDS011;4133;48.752;9.088;2022-07-21T06:58:34;12.57;;;8.60;;
8183;SDS011;4133;48.752;9.088;2022-07-21T07:01:00;8.75;;;7.85;;
8183;SDS011;4133;48.752;9.088;2022-07-21T07:03:26;9.23;;;8.10;;
8183;SDS011;4133;48.752;9.088;2022-07-21T07:05:53;9.10;;;8.15;;
8183;SDS011;4133;48.752;9.088;2022-07-21T07:08:19;7.97;;;7.20;;
8183;SDS011;4133;48.752;9.088;2022-07-21T07:10:45;7.57;;;6.65;;
8183;SDS011;4133;48.752;9.088;2022-07-21T07:13:12;10.98;;;7.20;;
8183;SDS011;4133;48.752;9.088;2022-07-21T07:15:38;8.32;;;6.72;;
8183;SDS011;4133;48.752;9.088;2022-07-21T07:18:04;7.47;;;6.68;;
8183;SDS011;4133;48.752;9.088;2022-07-21T07:20:30;7.40;;;6.70;;
8183;SDS011;4133;48.752;9.088;2022-07-21T07:22:56;9.10;;;6.80;;
8183;SDS011;4133;48.752;9.088;2022-07-21T07:27:58;7.00;;;6.20;;
8183;SDS011;4133;48.752;9.088;2022-07-21T07:30:25;9.48;;;6.65;;
8183;SDS011;4133;48.752;9.088;2022-07-21T07:32:51;9.40;;;6.65;;
8183;SDS011;4133;48.752;9.088;2022-07-21T07:35:17;6.82;;;5.32;;
8183;SDS011;4133;48.752;9.088;2022-07-21T07:37:44;7.07;;;6.00;;
8183;SDS011;4133;48.752;9.088;2022-07-21T07:40:12;7.50;;;5.75;;
8183;SDS011;4133;48.752;9.088;2022-07-21T07:42:38;9.02;;;5.82;;
8183;SDS011;4133;48.752;9.088;2022-07-21T07:45:05;6.10;;;5.50;;
8183;SDS011;4133;48.752;9.088;2022-07-21T07:47:32;8.40;;;5.90;;
8183;SDS011;4133;48.752;9.088;2022-07-21T07:49:58;8.77;;;6.25;;
8183;SDS011;4133;48.752;9.088;2022-07-21T07:52:24;6.00;;;5.40;;
8183;SDS011;4133;48.752;9.088;2022-07-21T07:54:51;9.32;;;5.32;;
8183;SDS011;4133;48.752;9.088;2022-07-21T07:57:17;6.13;;;5.55;;
8183;SDS011;4133;48.752;9.088;2022-07-21T07:59:43;5.65;;;5.00;;
8183;SDS011;4133;48.752;9.088;2022-07-21T08:02:09;7.65;;;4.95;;
8183;SDS011;4133;48.752;9.088;2022-07-21T08:04:35;7.07;;;5.40;;
8183;SDS011;4133;48.752;9.088;2022-07-21T08:07:04;7.53;;;5.57;;
8183;SDS011;4133;48.752;9.088;2022-07-21T08:09:30;6.22;;;5.43;;
8183;SDS011;4133;48.752;9.088;2022-07-21T08:11:56;5.82;;;5.00;;
8183;SDS011;4133;48.752;9.088;2022-07-21T08:14:22;6.15;;;5.55;;
8183;SDS011;4133;48.752;9.088;2022-07-21T08:16:48;5.60;;;4.90;;
8183;SDS011;4133;48.752;9.088;2022-07-21T08:19:14;6.85;;;5.10;;
8183;SDS011;4133;48.752;9.088;2022-07-21T08:21:41;8.40;;;5.68;;
8183;SDS011;4133;48.752;9.088;2022-07-21T08:24:08;6.45;;;5.38;;
8183;SDS011;4133;48.752;9.088;2022-07-21T08:26:34;7.85;;;5.70;;
8183;SDS011;4133;48.752;9.088;2022-07-21T08:29:00;8.43;;;5.60;;
8183;SDS011;4133;48.752;9.088;2022-07-21T08:31:26;7.63;;;4.97;;
8183;SDS011;4133;48.752;9.088;2022-07-21T08:33:52;7.75;;;5.72;;
8183;SDS011;4133;48.752;9.088;2022-07-21T08:36:18;5.82;;;5.05;;
8183;SDS011;4133;48.752;9.088;2022-07-21T08:38:44;6.10;;;4.47;;
8183;SDS011;4133;48.752;9.088;2022-07-21T08:41:11;4.90;;;4.40;;
8183;SDS011;4133;48.752;9.088;2022-07-21T08:43:37;6.60;;;4.80;;
8183;SDS011;4133;48.752;9.088;2022-07-21T08:46:03;5.07;;;4.20;;
8183;SDS011;4133;48.752;9.088;2022-07-21T08:48:30;4.85;;;4.35;;
8183;SDS011;4133;48.752;9.088;2022-07-21T08:50:56;5.50;;;4.50;;
8183;SDS011;4133;48.752;9.088;2022-07-21T08:53:23;4.63;;;4.13;;
8183;SDS011;4133;48.752;9.088;2022-07-21T08:55:49;4.68;;;3.95;;
8183;SDS011;4133;48.752;9.088;2022-07-21T08:58:16;11.77;;;4.10;;
8183;SDS011;4133;48.752;9.088;2022-07-21T09:00:43;5.85;;;4.30;;
8183;SDS011;4133;48.752;9.088;2022-07-21T09:03:23;5.35;;;3.65;;
8183;SDS011;4133;48.752;9.088;2022-07-21T09:05:59;7.18;;;4.00;;
8183;SDS011;4133;48.752;9.088;2022-07-21T09:08:30;5.43;;;3.95;;
8183;SDS011;4133;48.752;9.088;2022-07-21T09:13:42;5.05;;;3.88;;
8183;SDS011;4133;48.752;9.088;2022-07-21T09:16:11;8.07;;;4.20;;
8183;SDS011;4133;48.752;9.088;2022-07-21T09:18:47;4.78;;;3.63;;
8183;SDS011;4133;48.752;9.088;2022-07-21T09:21:19;4.00;;;3.60;;
8183;SDS011;4133;48.752;9.088;2022-07-21T09:23:52;6.85;;;4.10;;
8183;SDS011;4133;48.752;9.088;2022-07-21T09:26:18;4.20;;;3.80;;
8183;SDS011;4133;48.752;9.088;2022-07-21T09:28:44;5.28;;;3.70;;
8183;SDS011;4133;48.752;9.088;2022-07-21T09:31:17;8.50;;;3.70;;
8183;SDS011;4133;48.752;9.088;2022-07-21T09:33:45;4.32;;;3.38;;
8183;SDS011;4133;48.752;9.088;2022-07-21T09:36:15;4.07;;;3.67;;
8183;SDS011;4133;48.752;9.088;2022-07-21T09:38:43;4.00;;;3.60;;
8183;SDS011;4133;48.752;9.088;2022-07-21T09:43:40;6.38;;;3.40;;
8183;SDS011;4133;48.752;9.088;2022-07-21T09:48:42;4.13;;;3.30;;
8183;SDS011;4133;48.752;9.088;2022-07-21T09:56:23;5.25;;;3.00;;
8183;SDS011;4133;48.752;9.088;2022-07-21T09:58:51;3.95;;;3.10;;
8183;SDS011;4133;48.752;9.088;2022-07-21T10:01:17;3.28;;;2.97;;
8183;SDS011;4133;48.752;9.088;2022-07-21T10:03:47;3.58;;;2.88;;
8183;SDS011;4133;48.752;9.088;2022-07-21T10:06:14;2.80;;;2.50;;
8183;SDS011;4133;48.752;9.088;2022-07-21T10:08:40;3.58;;;2.70;;
8183;SDS011;4133;48.752;9.088;2022-07-21T10:11:07;4.15;;;2.72;;
8183;SDS011;4133;48.752;9.088;2022-07-21T10:13:33;3.53;;;2.70;;
8183;SDS011;4133;48.752;9.088;2022-07-21T10:16:00;5.45;;;3.00;;
8183;SDS011;4133;48.752;9.088;2022-07-21T10:21:16;3.22;;;2.70;;
8183;SDS011;4133;48.752;9.088;2022-07-21T10:23:59;2.58;;;2.35;;
8183;SDS011;4133;48.752;9.088;2022-07-21T10:26:25;3.05;;;2.78;;
8183;SDS011;4133;48.752;9.088;2022-07-21T10:28:51;3.05;;;2.50;;
8183;SDS011;4133;48.752;9.088;2022-07-21T10:31:18;3.10;;;2.80;;
8183;SDS011;4133;48.752;9.088;2022-07-21T10:36:11;3.00;;;2.45;;
8183;SDS011;4133;48.752;9.088;2022-07-21T10:41:38;3.13;;;2.55;;
8183;SDS011;4133;48.752;9.088;2022-07-21T10:44:37;3.85;;;2.50;;
8183;SDS011;4133;48.752;9.088;2022-07-21T10:57:38;5.35;;;2.72;;
8183;SDS011;4133;48.752;9.088;2022-07-21T11:02:50;2.33;;;2.10;;
8183;SDS011;4133;48.752;9.088;2022-07-21T11:05:16;2.90;;;2.17;;
8183;SDS011;4133;48.752;9.088;2022-07-21T11:10:27;2.33;;;2.10;;
8183;SDS011;4133;48.752;9.088;2022-07-21T11:12:56;2.50;;;2.30;;
8183;SDS011;4133;48.752;9.088;2022-07-21T11:16:23;2.33;;;2.13;;
8183;SDS011;4133;48.752;9.088;2022-07-21T11:18:19;2.88;;;2.28;;
8183;SDS011;4133;48.752;9.088;2022-07-21T11:21:02;2.50;;;2.30;;
8183;SDS011;4133;48.752;9.088;2022-07-21T11:26:23;2.85;;;2.50;;
8183;SDS011;4133;48.752;9.088;2022-07-21T11:29:06;3.35;;;2.20;;
8183;SDS011;4133;48.752;9.088;2022-07-21T11:31:32;4.45;;;2.45;;
8183;SDS011;4133;48.752;9.088;2022-07-21T11:34:12;3.47;;;2.70;;
8183;SDS011;4133;48.752;9.088;2022-07-21T11:36:38;2.70;;;2.50;;
8183;SDS011;4133;48.752;9.088;2022-07-21T11:39:05;3.53;;;2.60;;
8183;SDS011;4133;48.752;9.088;2022-07-21T11:41:32;2.65;;;2.35;;
8183;SDS011;4133;48.752;9.088;2022-07-21T11:43:58;2.70;;;2.50;;
8183;SDS011;4133;48.752;9.088;2022-07-21T11:46:24;2.70;;;2.50;;
8183;SDS011;4133;48.752;9.088;2022-07-21T11:49:01;5.15;;;2.45;;
8183;SDS011;4133;48.752;9.088;2022-07-21T11:56:53;3.22;;;2.70;;
8183;SDS011;4133;48.752;9.088;2022-07-21T11:59:26;2.95;;;2.70;;
8183;SDS011;4133;48.752;9.088;2022-07-21T12:04:32;3.67;;;2.75;;
8183;SDS011;4133;48.752;9.088;2022-07-21T12:06:59;2.75;;;2.55;;
8183;SDS011;4133;48.752;9.088;2022-07-21T12:09:28;3.83;;;2.65;;
8183;SDS011;4133;48.752;9.088;2022-07-21T12:15:08;3.00;;;2.80;;
8183;SDS011;4133;48.752;9.088;2022-07-21T12:17:38;3.08;;;2.65;;
8183;SDS011;4133;48.752;9.088;2022-07-21T12:20:11;3.10;;;2.80;;
8183;SDS011;4133;48.752;9.088;2022-07-21T12:22:45;3.45;;;2.80;;
8183;SDS011;4133;48.752;9.088;2022-07-21T12:25:15;3.85;;;3.00;;
8183;SDS011;4133;48.752;9.088;2022-07-21T12:27:42;3.47;;;3.00;;
8183;SDS011;4133;48.752;9.088;2022-07-21T12:30:10;3.05;;;2.78;;
8183;SDS011;4133;48.752;9.088;2022-07-21T12:32:41;4.00;;;3.10;;
8183;SDS011;4133;48.752;9.088;2022-07-21T12:35:16;3.78;;;2.92;;
8183;SDS011;4133;48.752;9.088;2022-07-21T12:40:45;3.33;;;3.00;;
8183;SDS011;4133;48.752;9.088;2022-07-21T12:43:15;2.78;;;2.58;;
8183;SDS011;4133;48.752;9.088;2022-07-21T12:48:11;4.65;;;2.95;;
8183;SDS011;4133;48.752;9.088;2022-07-21T12:50:38;5.22;;;2.83;;
8183;SDS011;4133;48.752;9.088;2022-07-21T12:53:11;4.13;;;3.35;;
8183;SDS011;4133;48.752;9.088;2022-07-21T12:55:37;3.80;;;2.80;;
8183;SDS011;4133;48.752;9.088;2022-07-21T12:58:03;3.58;;;3.10;;
8183;SDS011;4133;48.752;9.088;2022-07-21T13:00:30;2.95;;;2.65;;
8183;SDS011;4133;48.752;9.088;2022-07-21T13:02:56;3.05;;;2.85;;
8183;SDS011;4133;48.752;9.088;2022-07-21T13:05:23;3.33;;;2.80;;
8183;SDS011;4133;48.752;9.088;2022-07-21T13:07:49;3.80;;;2.60;;
8183;SDS011;4133;48.752;9.088;2022-07-21T13:10:17;4.32;;;2.90;;
8183;SDS011;4133;48.752;9.088;2022-07-21T13:12:43;5.13;;;3.00;;
8183;SDS011;4133;48.752;9.088;2022-07-21T13:15:09;3.80;;;3.25;;
8183;SDS011;4133;48.752;9.088;2022-07-21T13:17:36;4.35;;;3.55;;
8183;SDS011;4133;48.752;9.088;2022-07-21T13:20:02;5.65;;;3.13;;
8183;SDS011;4133;48.752;9.088;2022-07-21T13:22:28;3.47;;;3.13;;
8183;SDS011;4133;48.752;9.088;2022-07-21T13:24:56;4.80;;;3.67;;
8183;SDS011;4133;48.752;9.088;2022-07-21T13:27:22;4.25;;;3.42;;
8183;SDS011;4133;48.752;9.088;2022-07-21T13:29:48;4.40;;;3.50;;
8183;SDS011;4133;48.752;9.088;2022-07-21T13:32:14;3.83;;;3.42;;
8183;SDS011;4133;48.752;9.088;2022-07-21T13:34:41;5.47;;;3.33;;
8183;SDS011;4133;48.752;9.088;2022-07-21T13:37:10;4.63;;;3.58;;
8183;SDS011;4133;48.752;9.088;2022-07-21T13:39:39;5.18;;;3.10;;
8183;SDS011;4133;48.752;9.088;2022-07-21T13:42:06;3.75;;;3.00;;
8183;SDS011;4133;48.752;9.088;2022-07-21T13:44:33;5.80;;;3.38;;
8183;SDS011;4133;48.752;9.088;2022-07-21T13:46:59;3.88;;;3.55;;
8183;SDS011;4133;48.752;9.088;2022-07-21T13:49:25;3.90;;;3.58;;
8183;SDS011;4133;48.752;9.088;2022-07-21T13:51:51;4.25;;;3.67;;
8183;SDS011;4133;48.752;9.088;2022-07-21T13:54:17;4.60;;;3.30;;
8183;SDS011;4133;48.752;9.088;2022-07-21T13:56:43;3.67;;;3.28;;
8183;SDS011;4133;48.752;9.088;2022-07-21T13:59:10;5.40;;;3.22;;
8183;SDS011;4133;48.752;9.088;2022-07-21T14:01:36;6.55;;;3.28;;
8183;SDS011;4133;48.752;9.088;2022-07-21T14:04:02;4.07;;;3.05;;
8183;SDS011;4133;48.752;9.088;2022-07-21T14:06:28;4.32;;;3.13;;
8183;SDS011;4133;48.752;9.088;2022-07-21T14:08:54;3.40;;;3.10;;
8183;SDS011;4133;48.752;9.088;2022-07-21T14:11:20;2.95;;;2.75;;
8183;SDS011;4133;48.752;9.088;2022-07-21T14:13:48;3.92;;;3.35;;
8183;SDS011;4133;48.752;9.088;2022-07-21T14:16:14;3.78;;;2.72;;
8183;SDS011;4133;48.752;9.088;2022-07-21T14:18:41;5.03;;;2.83;;
8183;SDS011;4133;48.752;9.088;2022-07-21T14:21:07;4.18;;;3.25;;
8183;SDS011;4133;48.752;9.088;2022-07-21T14:23:37;3.53;;;3.22;;
8183;SDS011;4133;48.752;9.088;2022-07-21T14:26:03;4.55;;;3.30;;
8183;SDS011;4133;48.752;9.088;2022-07-21T14:28:30;3.20;;;2.88;;
8183;SDS011;4133;48.752;9.088;2022-07-21T14:30:56;6.38;;;3.50;;
8183;SDS011;4133;48.752;9.088;2022-07-21T14:33:22;3.83;;;3.30;;
8183;SDS011;4133;48.752;9.088;2022-07-21T14:35:48;3.80;;;3.17;;
8183;SDS011;4133;48.752;9.088;2022-07-21T14:38:14;4.13;;;3.67;;
8183;SDS011;4133;48.752;9.088;2022-07-21T14:40:40;3.40;;;3.10;;
8183;SDS011;4133;48.752;9.088;2022-07-21T14:43:06;5.97;;;3.20;;
8183;SDS011;4133;48.752;9.088;2022-07-21T14:45:32;5.78;;;3.80;;
8183;SDS011;4133;48.752;9.088;2022-07-21T14:47:58;4.82;;;3.03;;
8183;SDS011;4133;48.752;9.088;2022-07-21T14:50:25;3.40;;;3.10;;
8183;SDS011;4133;48.752;9.088;2022-07-21T14:52:51;3.65;;;3.22;;
8183;SDS011;4133;48.752;9.088;2022-07-21T14:55:17;3.85;;;3.45;;
8183;SDS011;4133;48.752;9.088;2022-07-21T14:57:47;4.63;;;3.13;;
8183;SDS011;4133;48.752;9.088;2022-07-21T15:00:13;7.18;;;3.08;;
8183;SDS011;4133;48.752;9.088;2022-07-21T15:02:39;7.22;;;3.38;;
8183;SDS011;4133;48.752;9.088;2022-07-21T15:05:05;3.03;;;2.72;;
8183;SDS011;4133;48.752;9.088;2022-07-21T15:07:31;3.55;;;3.00;;
8183;SDS011;4133;48.752;9.088;2022-07-21T15:09:57;4.65;;;3.10;;
8183;SDS011;4133;48.752;9.088;2022-07-21T15:12:24;3.30;;;3.00;;
8183;SDS011;4133;48.752;9.088;2022-07-21T15:14:50;4.32;;;3.00;;
8183;SDS011;4133;48.752;9.088;2022-07-21T15:17:16;3.55;;;3.05;;
8183;SDS011;4133;48.752;9.088;2022-07-21T15:19:43;5.43;;;3.40;;
8183;SDS011;4133;48.752;9.088;2022-07-21T15:22:12;6.43;;;3.20;;
8183;SDS011;4133;48.752;9.088;2022-07-21T15:27:33;3.35;;;2.72;;
8183;SDS011;4133;48.752;9.088;2022-07-21T15:29:59;3.47;;;3.15;;
8183;SDS011;4133;48.752;9.088;2022-07-21T15:32:26;2.92;;;2.70;;
8183;SDS011;4133;48.752;9.088;2022-07-21T15:34:55;3.35;;;3.05;;
8183;SDS011;4133;48.752;9.088;2022-07-21T15:37:21;4.35;;;3.10;;
8183;SDS011;4133;48.752;9.088;2022-07-21T15:39:47;3.58;;;2.83;;
8183;SDS011;4133;48.752;9.088;2022-07-21T15:42:16;3.55;;;2.80;;
8183;SDS011;4133;48.752;9.088;2022-07-21T15:44:42;3.58;;;3.25;;
8183;SDS011;4133;48.752;9.088;2022-07-21T15:47:11;6.10;;;2.75;;
8183;SDS011;4133;48.752;9.088;2022-07-21T15:49:37;3.30;;;2.83;;
8183;SDS011;4133;48.752;9.088;2022-07-21T15:52:03;2.75;;;2.47;;
8183;SDS011;4133;48.752;9.088;2022-07-21T15:54:40;3.45;;;2.83;;
8183;SDS011;4133;48.752;9.088;2022-07-21T15:57:06;2.95;;;2.60;;
8183;SDS011;4133;48.752;9.088;2022-07-21T15:59:32;2.65;;;2.42;;
8183;SDS011;4133;48.752;9.088;2022-07-21T16:01:58;3.90;;;2.72;;
8183;SDS011;4133;48.752;9.088;2022-07-21T16:04:25;9.10;;;3.00;;
8183;SDS011;4133;48.752;9.088;2022-07-21T16:06:51;3.88;;;3.20;;